createdAt,value
2023-04-08T00:01:45.970Z,100840.84
2023-04-08T00:04:14.653Z,100841.69
2023-04-08T00:06:42.717Z,100844.53
2023-04-08T00:09:11.294Z,100837.25
2023-04-08T00:11:39.116Z,100844.41
2023-04-08T00:14:06.957Z,100840.13
2023-04-08T00:16:35.018Z,100839.28
2023-04-08T00:19:02.843Z,100837.56
2023-04-08T00:21:31.705Z,100834.00
2023-04-08T00:23:59.603Z,100835.56
2023-04-08T00:26:27.719Z,100834.84
2023-04-08T00:28:55.884Z,100837.25
2023-04-08T00:31:26.734Z,100835.56
2023-04-08T00:33:57.661Z,100843.16
2023-04-08T00:36:27.845Z,100840.47
2023-04-08T00:38:55.718Z,100844.16
2023-04-08T00:41:24.620Z,100838.59
2023-04-08T00:43:53.231Z,100839.63
2023-04-08T00:46:24.122Z,100838.59
2023-04-08T00:48:52.259Z,100837.56
2023-04-08T00:51:20.217Z,100835.88
2023-04-08T00:53:48.249Z,100839.91
2023-04-08T00:56:19.897Z,100847.91
2023-04-08T00:58:54.429Z,100842.47
2023-04-08T01:01:22.843Z,100847.06
2023-04-08T01:03:50.991Z,100840.47
2023-04-08T01:06:19.470Z,100843.84
2023-04-08T01:08:47.353Z,100835.88
2023-04-08T01:11:17.664Z,100845.72
2023-04-08T01:13:45.701Z,100832.69
2023-04-08T01:16:13.652Z,100836.03
2023-04-08T01:18:41.808Z,100840.28
2023-04-08T01:21:11.549Z,100847.06
2023-04-08T01:23:39.518Z,100843.31
2023-04-08T01:26:07.417Z,100852.16
2023-04-08T01:28:35.667Z,100843.00
2023-04-08T01:31:06.186Z,100840.28
2023-04-08T01:33:34.062Z,100851.31
2023-04-08T01:36:02.354Z,100848.75
2023-04-08T01:38:30.197Z,100849.59
2023-04-08T01:40:58.046Z,100847.19
2023-04-08T01:43:25.909Z,100847.06
2023-04-08T01:45:58.319Z,100853.31
2023-04-08T01:48:26.907Z,100855.00
2023-04-08T01:50:54.756Z,100853.47
2023-04-08T01:53:23.848Z,100848.03
2023-04-08T01:55:51.664Z,100853.78
2023-04-08T01:58:21.662Z,100848.22
2023-04-08T02:00:49.680Z,100848.34
2023-04-08T02:03:17.737Z,100856.19
2023-04-08T02:05:45.849Z,100847.06
2023-04-08T02:08:14.339Z,100842.09
2023-04-08T02:10:42.196Z,100838.91
2023-04-08T02:13:12.188Z,100830.91
2023-04-08T02:15:40.129Z,100829.94
2023-04-08T02:18:08.640Z,100833.63
2023-04-08T02:20:36.922Z,100831.09
2023-04-08T02:23:07.711Z,100840.22
2023-04-08T02:25:36.142Z,100839.06
2023-04-08T02:28:03.933Z,100845.66
2023-04-08T02:30:33.859Z,100840.06
2023-04-08T02:33:01.836Z,100848.53
2023-04-08T02:35:29.966Z,100844.47
2023-04-08T02:37:57.965Z,100837.19
2023-04-08T02:40:25.889Z,100847.38
2023-04-08T02:42:53.650Z,100846.34
2023-04-08T02:45:21.632Z,100839.38
2023-04-08T02:47:52.500Z,100843.09
2023-04-08T02:50:23.406Z,100847.38
2023-04-08T02:52:51.637Z,100850.59
2023-04-08T02:55:19.421Z,100851.06
2023-04-08T02:57:49.810Z,100855.78
2023-04-08T03:00:18.004Z,100849.53
2023-04-08T03:02:45.872Z,100851.69
2023-04-08T03:05:13.873Z,100854.38
2023-04-08T03:07:41.839Z,100850.69
2023-04-08T03:10:09.616Z,100854.38
2023-04-08T03:12:37.753Z,100858.97
2023-04-08T03:15:08.588Z,100852.84
2023-04-08T03:17:36.478Z,100853.81
2023-04-08T03:20:05.227Z,100861.81
2023-04-08T03:22:33.064Z,100856.41
2023-04-08T03:25:00.940Z,100858.41
2023-04-08T03:27:29.010Z,100862.13
2023-04-08T03:30:00.110Z,100866.53
2023-04-08T03:32:29.325Z,100859.13
2023-04-08T03:34:57.112Z,100863.50
2023-04-08T03:37:26.951Z,100869.97
2023-04-08T03:39:55.720Z,100869.44
2023-04-08T03:42:23.533Z,100879.41
2023-04-08T03:44:51.414Z,100873.13
2023-04-08T03:47:19.226Z,100874.28
2023-04-08T03:49:47.113Z,100877.00
2023-04-08T03:52:14.989Z,100884.28
2023-04-08T03:54:42.741Z,100886.16
2023-04-08T03:57:12.065Z,100885.63
2023-04-08T03:59:41.188Z,100885.31
2023-04-08T04:02:09.118Z,100886.16
2023-04-08T04:04:37.179Z,100880.88
2023-04-08T04:07:04.972Z,100872.59
2023-04-08T04:09:32.720Z,100882.03
2023-04-08T04:12:00.470Z,100882.75
2023-04-08T04:14:28.267Z,100879.91
2023-04-08T04:16:56.165Z,100878.41
2023-04-08T04:19:23.902Z,100885.84
2023-04-08T04:21:51.724Z,100888.69
2023-04-08T04:24:19.529Z,100889.88
2023-04-08T04:26:47.634Z,100895.16
2023-04-08T04:29:15.508Z,100903.44
2023-04-08T04:31:43.426Z,100905.47
2023-04-08T04:34:11.308Z,100904.84
2023-04-08T04:36:39.113Z,100902.63
2023-04-08T04:39:06.927Z,100910.06
2023-04-08T04:41:39.026Z,100914.94
2023-04-08T04:44:06.974Z,100910.41
2023-04-08T04:46:34.995Z,100908.94
2023-04-08T04:49:02.965Z,100916.59
2023-04-08T04:51:30.784Z,100915.97
2023-04-08T04:53:59.025Z,100913.63
2023-04-08T04:59:06.833Z,100924.00
2023-04-08T05:01:34.702Z,100932.69
2023-04-08T05:04:02.523Z,100926.59
2023-04-08T05:06:30.327Z,100919.28
2023-04-08T05:08:58.092Z,100921.44
2023-04-08T05:11:26.238Z,100919.75
2023-04-08T05:13:54.049Z,100927.91
2023-04-08T05:16:21.984Z,100933.44
2023-04-08T05:18:50.442Z,100943.44
2023-04-08T05:21:18.634Z,100937.31
2023-04-08T05:23:46.591Z,100949.50
2023-04-08T05:26:16.312Z,100947.06
2023-04-08T05:28:44.382Z,100953.38
2023-04-08T05:31:12.528Z,100954.78
2023-04-08T05:33:40.486Z,100952.25
2023-04-08T05:36:08.262Z,100953.25
2023-04-08T05:38:36.157Z,100955.78
2023-04-08T05:41:03.954Z,100960.09
2023-04-08T05:43:31.955Z,100955.84
2023-04-08T05:45:59.770Z,100952.41
2023-04-08T05:48:27.603Z,100957.50
2023-04-08T05:50:55.418Z,100954.78
2023-04-08T05:53:24.812Z,100957.50
2023-04-08T05:55:52.581Z,100960.25
2023-04-08T05:58:20.406Z,100951.38
2023-04-08T06:00:48.223Z,100957.84
2023-04-08T06:03:18.913Z,100956.66
2023-04-08T06:05:48.227Z,100959.38
2023-04-08T06:08:16.400Z,100964.66
2023-04-08T06:10:44.224Z,100969.75
2023-04-08T06:13:12.025Z,100973.31
2023-04-08T06:15:39.821Z,100982.31
2023-04-08T06:18:07.575Z,100977.50
2023-04-08T06:20:36.022Z,100991.47
2023-04-08T06:23:03.816Z,100986.50
2023-04-08T06:25:31.633Z,100981.25
2023-04-08T06:27:59.442Z,100982.88
2023-04-08T06:30:27.349Z,100979.66
2023-04-08T06:32:55.186Z,100981.00
2023-04-08T06:35:25.077Z,100987.94
2023-04-08T06:37:53.296Z,100996.44
2023-04-08T06:40:21.376Z,101003.91
2023-04-08T06:42:49.178Z,101003.56
2023-04-08T06:45:17.157Z,101003.41
2023-04-08T06:47:45.022Z,101008.84
2023-04-08T06:50:12.916Z,101011.13
2023-04-08T06:52:40.754Z,101011.59
2023-04-08T06:55:08.599Z,101018.34
2023-04-08T06:57:36.947Z,101024.22
2023-04-08T07:00:04.783Z,101015.34
2023-04-08T07:02:32.981Z,101025.84
2023-04-08T07:05:00.827Z,101028.41
2023-04-08T07:07:28.611Z,101027.91
2023-04-08T07:09:56.486Z,101029.91
2023-04-08T07:12:24.303Z,101029.22
2023-04-08T07:14:52.221Z,101032.78
2023-04-08T07:17:19.945Z,101034.91
2023-04-08T07:19:47.746Z,101032.56
2023-04-08T07:22:16.239Z,101035.84
2023-04-08T07:24:49.634Z,101040.00
2023-04-08T07:27:17.459Z,101040.72
2023-04-08T07:29:45.309Z,101038.41
2023-04-08T07:32:13.102Z,101038.56
2023-04-08T07:34:41.258Z,101038.94
2023-04-08T07:37:09.040Z,101048.63
2023-04-08T07:39:36.831Z,101051.03
2023-04-08T07:42:04.694Z,101046.94
2023-04-08T07:44:32.560Z,101046.94
2023-04-08T07:47:00.375Z,101045.75
2023-04-08T07:49:28.195Z,101046.59
2023-04-08T07:51:56.028Z,101046.91
2023-04-08T07:54:23.834Z,101043.50
2023-04-08T07:56:51.653Z,101044.28
2023-04-08T07:59:19.642Z,101053.13
2023-04-08T08:01:47.726Z,101050.53
2023-04-08T08:04:15.836Z,101056.31
2023-04-08T08:06:43.710Z,101056.66
2023-04-08T08:09:11.550Z,101056.34
2023-04-08T08:11:39.319Z,101062.22
2023-04-08T08:14:08.080Z,101060.69
2023-04-08T08:16:36.635Z,101076.56
2023-04-08T08:19:06.124Z,101069.91
2023-04-08T08:21:33.915Z,101072.94
2023-04-08T08:24:01.822Z,101076.50
2023-04-08T08:26:29.911Z,101077.50
2023-04-08T08:28:57.734Z,101074.59
2023-04-08T08:31:25.591Z,101076.59
2023-04-08T08:33:53.507Z,101072.66
2023-04-08T08:36:21.837Z,101080.31
2023-04-08T08:38:49.674Z,101086.41
2023-04-08T08:41:17.466Z,101090.16
2023-04-08T08:43:45.504Z,101087.44
2023-04-08T08:46:13.496Z,101089.31
2023-04-08T08:48:41.473Z,101104.44
2023-04-08T08:51:09.304Z,101106.47
2023-04-08T08:53:37.085Z,101104.22
2023-04-08T08:56:17.842Z,101102.34
2023-04-08T08:58:47.829Z,101100.66
2023-04-08T09:01:16.012Z,101104.06
2023-04-08T09:03:44.062Z,101103.06
2023-04-08T09:06:12.797Z,101106.78
2023-04-08T09:08:40.641Z,101106.78
2023-04-08T09:11:08.450Z,101105.78
2023-04-08T09:13:36.283Z,101113.41
2023-04-08T09:16:05.166Z,101122.09
2023-04-08T09:18:33.311Z,101123.09
2023-04-08T09:21:01.086Z,101116.97
2023-04-08T09:23:28.911Z,101120.72
2023-04-08T09:25:56.998Z,101113.56
2023-04-08T09:28:24.776Z,101129.16
2023-04-08T09:30:52.547Z,101122.88
2023-04-08T09:33:20.344Z,101132.38
2023-04-08T09:35:48.196Z,101127.94
2023-04-08T09:38:16.529Z,101133.38
2023-04-08T09:40:44.314Z,101132.53
2023-04-08T09:43:12.244Z,101132.53
2023-04-08T09:45:41.328Z,101128.97
2023-04-08T09:48:09.138Z,101135.38
2023-04-08T09:50:36.979Z,101140.16
2023-04-08T09:53:04.820Z,101134.16
2023-04-08T09:55:33.515Z,101138.59
2023-04-08T09:58:01.419Z,101143.16
2023-04-08T10:00:29.194Z,101143.88
2023-04-08T10:02:57.481Z,101147.44
2023-04-08T10:05:25.442Z,101140.44
2023-04-08T10:07:53.268Z,101145.22
2023-04-08T10:10:21.226Z,101152.53
2023-04-08T10:12:49.073Z,101144.38
2023-04-08T10:15:16.889Z,101152.53
2023-04-08T10:17:44.723Z,101159.66
2023-04-08T10:20:13.334Z,101159.78
2023-04-08T10:22:41.121Z,101159.66
2023-04-08T10:25:09.392Z,101144.19
2023-04-08T10:27:37.267Z,101154.03
2023-04-08T10:30:05.162Z,101153.91
2023-04-08T10:32:33.064Z,101152.53
2023-04-08T10:35:01.074Z,101156.94
2023-04-08T10:37:28.953Z,101158.47
2023-04-08T10:39:56.794Z,101162.38
2023-04-08T10:42:26.215Z,101162.50
2023-04-08T10:44:54.070Z,101160.66
2023-04-08T10:47:21.920Z,101157.94
2023-04-08T10:49:49.816Z,101160.34
2023-04-08T10:52:18.264Z,101160.72
2023-04-08T10:54:46.013Z,101159.25
2023-04-08T10:57:13.891Z,101156.06
2023-04-08T10:59:41.740Z,101165.78
2023-04-08T11:02:09.778Z,101156.91
2023-04-08T11:04:37.837Z,101158.06
2023-04-08T11:07:06.004Z,101164.22
2023-04-08T11:09:33.871Z,101160.16
2023-04-08T11:12:02.028Z,101159.31
2023-04-08T11:14:29.815Z,101158.28
2023-04-08T11:16:57.685Z,101159.16
2023-04-08T11:19:25.505Z,101159.16
2023-04-08T11:21:53.267Z,101148.81
2023-04-08T11:24:22.440Z,101151.91
2023-04-08T11:26:50.347Z,101158.19
2023-04-08T11:29:18.193Z,101161.63
2023-04-08T11:31:47.311Z,101157.25
2023-04-08T11:34:15.126Z,101160.28
2023-04-08T11:36:42.840Z,101150.41
2023-04-08T11:39:10.674Z,101145.81
2023-04-08T11:41:39.487Z,101150.75
2023-04-08T11:44:08.031Z,101149.00
2023-04-08T11:46:36.442Z,101156.50
2023-04-08T11:49:04.284Z,101149.34
2023-04-08T11:51:32.308Z,101149.50
2023-04-08T11:54:00.710Z,101156.66
2023-04-08T11:56:30.516Z,101152.22
2023-04-08T11:58:58.408Z,101150.19
2023-04-08T12:01:26.325Z,101142.56
2023-04-08T12:03:54.588Z,101144.44
2023-04-08T12:06:23.489Z,101155.84
2023-04-08T12:08:51.745Z,101155.06
2023-04-08T12:11:20.233Z,101160.72
2023-04-08T12:13:50.074Z,101166.22
2023-04-08T12:16:18.511Z,101155.84
2023-04-08T12:18:46.923Z,101158.53
2023-04-08T12:21:14.724Z,101159.53
2023-04-08T12:23:42.540Z,101160.94
2023-04-08T12:26:10.341Z,101158.56
2023-04-08T12:28:38.301Z,101166.16
2023-04-08T12:31:06.190Z,101161.25
2023-04-08T12:33:35.917Z,101166.38
2023-04-08T12:36:03.888Z,101167.91
2023-04-08T12:38:32.209Z,101166.03
2023-04-08T12:41:00.053Z,101168.41
2023-04-08T12:43:30.715Z,101168.59
2023-04-08T12:45:58.565Z,101162.97
2023-04-08T12:48:26.572Z,101165.34
2023-04-08T12:50:54.402Z,101165.38
2023-04-08T12:53:22.267Z,101163.16
2023-04-08T12:55:50.272Z,101163.66
2023-04-08T12:58:18.170Z,101166.22
2023-04-08T13:00:46.822Z,101160.56
2023-04-08T13:03:17.521Z,101160.06
2023-04-08T13:05:45.447Z,101162.25
2023-04-08T13:08:13.296Z,101165.19
2023-04-08T13:10:41.163Z,101160.22
2023-04-08T13:13:08.936Z,101164.28
2023-04-08T13:15:37.001Z,101160.91
2023-04-08T13:18:04.906Z,101163.59
2023-04-08T13:20:33.719Z,101155.69
2023-04-08T13:23:01.707Z,101160.66
2023-04-08T13:25:29.484Z,101164.69
2023-04-08T13:27:57.268Z,101154.63
2023-04-08T13:30:25.141Z,101163.50
2023-04-08T13:32:53.243Z,101162.28
2023-04-08T13:35:21.133Z,101156.16
2023-04-08T13:37:48.983Z,101161.56
2023-04-08T13:40:16.786Z,101170.88
2023-04-08T13:42:44.640Z,101167.53
2023-04-08T13:45:12.504Z,101166.47
2023-04-08T13:47:40.308Z,101166.59
2023-04-08T13:50:08.115Z,101166.25
2023-04-08T13:52:36.045Z,101160.44
2023-04-08T13:55:04.121Z,101160.06
2023-04-08T13:57:31.991Z,101159.56
2023-04-08T13:59:59.816Z,101165.50
2023-04-08T14:02:27.717Z,101162.78
2023-04-08T14:04:55.531Z,101161.91
2023-04-08T14:07:23.355Z,101159.66
2023-04-08T14:09:51.410Z,101156.56
2023-04-08T14:12:19.243Z,101159.97
2023-04-08T14:14:47.171Z,101157.53
2023-04-08T14:17:14.976Z,101163.00
2023-04-08T14:19:42.988Z,101159.28
2023-04-08T14:22:10.814Z,101168.75
2023-04-08T14:24:38.699Z,101168.75
2023-04-08T14:27:06.528Z,101165.66
2023-04-08T14:29:34.341Z,101165.34
2023-04-08T14:32:02.160Z,101169.94
2023-04-08T14:34:29.961Z,101176.59
2023-04-08T14:36:57.706Z,101166.44
2023-04-08T14:39:25.573Z,101168.16
2023-04-08T14:41:53.438Z,101172.91
2023-04-08T14:44:21.233Z,101167.31
2023-04-08T14:46:49.114Z,101175.66
2023-04-08T14:49:16.924Z,101174.34
2023-04-08T14:51:44.704Z,101177.06
2023-04-08T14:54:14.177Z,101178.06
2023-04-08T14:56:42.074Z,101176.53
2023-04-08T14:59:09.875Z,101177.25
2023-04-08T15:01:37.811Z,101173.16
2023-04-08T15:04:05.799Z,101178.94
2023-04-08T15:06:33.979Z,101167.97
2023-04-08T15:09:02.011Z,101174.94
2023-04-08T15:11:29.876Z,101172.88
2023-04-08T15:13:57.906Z,101177.59
2023-04-08T15:16:26.548Z,101171.34
2023-04-08T15:18:55.077Z,101177.25
2023-04-08T15:21:22.990Z,101171.28
2023-04-08T15:23:50.837Z,101175.88
2023-04-08T15:26:18.781Z,101177.19
2023-04-08T15:28:46.651Z,101172.69
2023-04-08T15:31:15.192Z,101169.31
2023-04-08T15:33:43.933Z,101175.41
2023-04-08T15:36:12.121Z,101177.63
2023-04-08T15:38:40.055Z,101169.47
2023-04-08T15:41:07.919Z,101183.03
2023-04-08T15:43:36.053Z,101182.19
2023-04-08T15:46:03.871Z,101186.09
2023-04-08T15:48:32.809Z,101188.09
2023-04-08T15:51:00.678Z,101188.09
2023-04-08T15:53:28.659Z,101187.41
2023-04-08T15:55:56.514Z,101187.59
2023-04-08T15:58:24.349Z,101191.63
2023-04-08T16:00:52.771Z,101200.63
2023-04-08T16:03:20.738Z,101198.94
2023-04-08T16:05:48.798Z,101208.28
2023-04-08T16:08:16.580Z,101212.84
2023-04-08T16:10:45.017Z,101213.25
2023-04-08T16:13:12.821Z,101208.56
2023-04-08T16:15:40.915Z,101217.22
2023-04-08T16:18:11.903Z,101218.38
2023-04-08T16:20:39.985Z,101216.88
2023-04-08T16:23:07.838Z,101218.28
2023-04-08T16:25:36.630Z,101227.59
2023-04-08T16:28:04.580Z,101235.78
2023-04-08T16:30:32.626Z,101226.22
2023-04-08T16:33:00.817Z,101229.88
2023-04-08T16:35:28.871Z,101242.09
2023-04-08T16:37:56.843Z,101234.47
2023-04-08T16:40:24.841Z,101243.69
2023-04-08T16:42:52.651Z,101250.38
2023-04-08T16:45:20.629Z,101239.81
2023-04-08T16:47:48.523Z,101246.44
2023-04-08T16:50:16.541Z,101253.72
2023-04-08T16:52:49.490Z,101258.94
2023-04-08T16:55:17.393Z,101259.66
2023-04-08T16:57:45.272Z,101265.31
2023-04-08T17:00:13.262Z,101263.53
2023-04-08T17:02:41.642Z,101265.19
2023-04-08T17:05:09.700Z,101272.00
2023-04-08T17:07:37.543Z,101273.81
2023-04-08T17:10:05.838Z,101278.41
2023-04-08T17:12:34.384Z,101267.59
2023-04-08T17:15:02.240Z,101277.16
2023-04-08T17:17:30.309Z,101291.53
2023-04-08T17:19:58.410Z,101286.13
2023-04-08T17:22:26.260Z,101292.63
2023-04-08T17:24:54.258Z,101295.06
2023-04-08T17:27:22.133Z,101302.84
2023-04-08T17:29:50.156Z,101305.19
2023-04-08T17:32:18.041Z,101306.22
2023-04-08T17:34:46.004Z,101306.69
2023-04-08T17:37:13.824Z,101310.06
2023-04-08T17:39:41.691Z,101316.25
2023-04-08T17:42:09.722Z,101319.44
2023-04-08T17:44:37.986Z,101321.31
2023-04-08T17:47:06.010Z,101313.47
2023-04-08T17:49:34.222Z,101315.47
2023-04-08T17:52:02.118Z,101321.25
2023-04-08T17:54:31.503Z,101327.53
2023-04-08T17:56:59.831Z,101327.84
2023-04-08T17:59:28.024Z,101324.75
2023-04-08T18:01:55.961Z,101336.47
2023-04-08T18:04:26.522Z,101334.22
2023-04-08T18:06:54.403Z,101339.97
2023-04-08T18:09:22.764Z,101345.41
2023-04-08T18:11:50.878Z,101343.38
2023-04-08T18:14:19.002Z,101345.34
2023-04-08T18:16:47.112Z,101349.19
2023-04-08T18:19:15.263Z,101351.41
2023-04-08T18:21:43.915Z,101365.19
2023-04-08T18:24:11.897Z,101355.69
2023-04-08T18:26:39.855Z,101364.31
2023-04-08T18:29:08.065Z,101360.78
2023-04-08T18:31:38.450Z,101364.34
2023-04-08T18:34:06.617Z,101371.31
2023-04-08T18:36:34.436Z,101375.91
2023-04-08T18:39:02.226Z,101377.94
2023-04-08T18:41:30.470Z,101375.38
2023-04-08T18:44:00.581Z,101376.72
2023-04-08T18:46:28.548Z,101384.97
2023-04-08T18:48:56.500Z,101390.63
2023-04-08T18:51:24.547Z,101382.44
2023-04-08T18:53:52.581Z,101383.63
2023-04-08T18:56:21.301Z,101389.34
2023-04-08T18:58:49.717Z,101392.59
2023-04-08T19:01:17.759Z,101398.31
2023-04-08T19:03:46.018Z,101396.94
2023-04-08T19:06:14.559Z,101394.38
2023-04-08T19:08:42.665Z,101388.97
2023-04-08T19:11:10.452Z,101392.63
2023-04-08T19:13:38.297Z,101390.53
2023-04-08T19:16:06.192Z,101393.97
2023-04-08T19:18:34.218Z,101388.78
2023-04-08T19:21:02.448Z,101391.25
2023-04-08T19:23:30.639Z,101381.25
2023-04-08T19:25:58.489Z,101384.06
2023-04-08T19:28:26.354Z,101389.91
2023-04-08T19:30:54.147Z,101392.38
2023-04-08T19:33:22.041Z,101385.56
2023-04-08T19:35:49.804Z,101378.69
2023-04-08T19:38:17.917Z,101377.84
2023-04-08T19:40:45.862Z,101366.22
2023-04-08T19:43:13.670Z,101373.53
2023-04-08T19:45:41.449Z,101382.88
2023-04-08T19:48:09.305Z,101377.44
2023-04-08T19:50:37.381Z,101385.59
2023-04-08T19:53:05.258Z,101389.66
2023-04-08T19:55:33.373Z,101391.34
2023-04-08T19:58:01.614Z,101386.03
2023-04-08T20:00:29.455Z,101389.94
2023-04-08T20:02:57.398Z,101388.69
2023-04-08T20:05:25.281Z,101392.25
2023-04-08T20:07:53.073Z,101390.88
2023-04-08T20:10:21.159Z,101382.00
2023-04-08T20:12:48.985Z,101389.78
2023-04-08T20:15:24.648Z,101394.38
2023-04-08T20:17:53.296Z,101393.19
2023-04-08T20:20:21.103Z,101395.06
2023-04-08T20:22:49.155Z,101404.41
2023-04-08T20:25:17.359Z,101405.25
2023-04-08T20:27:45.180Z,101400.88
2023-04-08T20:30:13.136Z,101402.88
2023-04-08T20:32:40.978Z,101405.59
2023-04-08T20:35:08.805Z,101408.78
2023-04-08T20:37:36.728Z,101416.09
2023-04-08T20:40:04.898Z,101409.38
2023-04-08T20:42:32.697Z,101420.09
2023-04-08T20:45:00.510Z,101426.00
2023-04-08T20:47:28.704Z,101416.44
2023-04-08T20:49:56.616Z,101421.16
2023-04-08T20:52:24.612Z,101422.59
2023-04-08T20:54:52.467Z,101428.16
2023-04-08T20:57:20.230Z,101422.88
2023-04-08T20:59:48.271Z,101419.59
2023-04-08T21:02:17.818Z,101420.63
2023-04-08T21:04:46.202Z,101418.03
2023-04-08T21:07:15.502Z,101417.19
2023-04-08T21:09:43.316Z,101417.63
2023-04-08T21:12:11.207Z,101412.19
2023-04-08T21:14:39.117Z,101418.78
2023-04-08T21:17:08.325Z,101414.38
2023-04-08T21:19:36.101Z,101419.09
2023-04-08T21:22:03.902Z,101418.38
2023-04-08T21:24:32.674Z,101418.25
2023-04-08T21:27:01.316Z,101423.53
2023-04-08T21:29:29.080Z,101421.09
2023-04-08T21:31:57.058Z,101426.41
2023-04-08T21:34:24.838Z,101422.25
2023-04-08T21:36:52.880Z,101429.84
2023-04-08T21:39:20.670Z,101419.28
2023-04-08T21:41:48.638Z,101429.31
2023-04-08T21:44:16.625Z,101435.91
2023-04-08T21:46:44.651Z,101433.19
2023-04-08T21:49:13.833Z,101436.00
2023-04-08T21:51:41.737Z,101436.28
2023-04-08T21:54:09.628Z,101432.88
2023-04-08T21:56:37.454Z,101439.00
2023-04-08T21:59:05.440Z,101440.47
2023-04-08T22:01:33.462Z,101449.16
2023-04-08T22:04:01.577Z,101432.31
2023-04-08T22:06:32.704Z,101438.75
2023-04-08T22:09:00.913Z,101431.59
2023-04-08T22:11:28.785Z,101433.03
2023-04-08T22:13:56.539Z,101425.88
2023-04-08T22:16:24.499Z,101426.72
2023-04-08T22:18:52.418Z,101424.16
2023-04-08T22:21:21.104Z,101424.16
2023-04-08T22:23:48.913Z,101424.16
2023-04-08T22:26:17.147Z,101419.44
2023-04-08T22:28:44.961Z,101422.44
2023-04-08T22:31:13.843Z,101425.44
2023-04-08T22:33:41.626Z,101414.88
2023-04-08T22:36:09.371Z,101423.03
2023-04-08T22:38:37.259Z,101414.88
2023-04-08T22:41:05.047Z,101427.75
2023-04-08T22:43:32.899Z,101424.72
2023-04-08T22:46:00.694Z,101426.59
2023-04-08T22:48:28.495Z,101414.88
2023-04-08T22:50:56.456Z,101416.75
2023-04-08T22:53:24.220Z,101415.91
2023-04-08T22:55:52.113Z,101428.59
2023-04-08T22:58:19.990Z,101423.34
2023-04-08T23:00:47.748Z,101431.50
2023-04-08T23:03:15.877Z,101425.63
2023-04-08T23:05:43.739Z,101428.19
2023-04-08T23:08:11.687Z,101434.50
2023-04-08T23:10:42.632Z,101435.66
2023-04-08T23:13:10.586Z,101436.50
2023-04-08T23:15:38.532Z,101442.53
2023-04-08T23:18:06.559Z,101442.66
2023-04-08T23:20:37.551Z,101443.69
2023-04-08T23:23:05.497Z,101448.22
2023-04-08T23:25:33.539Z,101438.50
2023-04-08T23:28:01.719Z,101434.09
2023-04-08T23:30:31.655Z,101441.41
2023-04-08T23:32:59.582Z,101434.09
2023-04-08T23:35:43.633Z,101434.94
2023-04-08T23:38:11.548Z,101442.38
2023-04-08T23:40:39.445Z,101442.53
2023-04-08T23:43:34.315Z,101443.25
2023-04-08T23:46:03.453Z,101438.50
2023-04-08T23:48:31.288Z,101429.69
2023-04-08T23:50:59.282Z,101435.66
2023-04-08T23:53:27.225Z,101428.66
2023-04-08T23:55:56.898Z,101434.94
2023-04-08T23:58:24.809Z,101432.25
